Time;durP1;ratioP1;P1;durP2;ratioP2;P2;SDS_P1;SDS_P2;PMS_P1;PMS_P2;Temp;Humidity;BMP_temperature;BMP_pressure;BME280_temperature;BME280_humidity;BME280_pressure;Samples;Min_cycle;Max_cycle;Signal;HPM_P1;HPM_P2
2024/03/22 00:02:30;;;;;;;10.70;7.70;;;;;;;10.48;77.01;100661.22;128214;1264;113647;-61
2024/03/22 00:05:37;;;;;;;10.40;7.10;;;;;;;10.48;76.82;100656.39;128678;1276;127624;-61
2024/03/22 00:08:46;;;;;;;13.40;8.80;;;;;;;10.47;76.72;100658.41;128352;1260;114159;-61
2024/03/22 00:11:59;;;;;;;11.80;7.60;;;;;;;10.47;76.86;100653.77;128215;1260;113551;-62
2024/03/22 00:15:07;;;;;;;12.20;7.90;;;;;;;10.47;77.17;100659.81;128209;1255;113561;-62
2024/03/22 00:18:10;;;;;;;9.80;7.20;;;;;;;10.48;76.95;100656.23;128693;1255;113483;-61
2024/03/22 00:21:17;;;;;;;10.20;7.20;;;;;;;10.49;77.09;100656.18;128550;1276;127794;-62
2024/03/22 00:24:23;;;;;;;8.80;7.20;;;;;;;10.51;77.09;100650.77;128607;1258;114738;-61
2024/03/22 00:27:28;;;;;;;10.60;8.00;;;;;;;10.52;76.73;100647.48;128610;1254;113543;-61
2024/03/22 00:30:37;;;;;;;11.60;7.80;;;;;;;10.52;76.94;100647.84;128596;1254;113472;-62
2024/03/22 00:33:45;;;;;;;10.20;6.90;;;;;;;10.54;76.77;100651.88;128532;1254;113446;-62
2024/03/22 00:36:57;;;;;;;10.90;6.60;;;;;;;10.55;76.93;100655.07;128494;1260;127703;-62
2024/03/22 00:44:49;;;;;;;11.00;7.90;;;;;;;10.57;77.01;100656.91;128101;1262;113657;-62
2024/03/22 00:52:36;;;;;;;10.90;6.20;;;;;;;10.58;76.29;100655.96;127986;1281;114772;-62
2024/03/22 00:55:42;;;;;;;10.90;7.20;;;;;;;10.56;76.03;100658.18;128035;1261;128724;-62
2024/03/22 00:58:47;;;;;;;12.10;8.40;;;;;;;10.56;75.62;100662.17;128030;1260;114252;-62
2024/03/22 01:01:55;;;;;;;11.70;8.10;;;;;;;10.55;75.35;100656.98;128202;1261;113516;-61
2024/03/22 01:05:00;;;;;;;11.40;7.90;;;;;;;10.56;75.25;100658.58;128375;1257;113750;-63
2024/03/22 01:08:06;;;;;;;13.20;8.10;;;;;;;10.54;75.08;100657.06;128334;1262;113662;-64
2024/03/22 01:11:10;;;;;;;11.50;8.20;;;;;;;10.53;74.80;100653.19;128113;1281;128154;-62
2024/03/22 01:14:16;;;;;;;11.10;7.20;;;;;;;10.52;74.56;100652.16;128266;1257;114648;-62
2024/03/22 01:17:20;;;;;;;10.50;7.30;;;;;;;10.52;74.30;100651.97;128043;1257;113572;-63
2024/03/22 01:20:26;;;;;;;12.90;8.30;;;;;;;10.48;74.21;100645.84;128220;1261;113683;-62
2024/03/22 01:23:34;;;;;;;10.40;8.10;;;;;;;10.48;73.87;100646.77;128293;1262;113736;-63
2024/03/22 01:26:39;;;;;;;9.50;6.50;;;;;;;10.46;73.66;100648.79;128414;1276;127823;-62
2024/03/22 01:29:42;;;;;;;11.20;7.40;;;;;;;10.45;73.85;100652.06;128205;1264;114780;-64
2024/03/22 01:32:50;;;;;;;11.40;6.50;;;;;;;10.43;73.51;100647.67;128428;1256;113744;-62
2024/03/22 01:35:56;;;;;;;12.10;6.60;;;;;;;10.41;73.52;100644.23;128432;1258;113560;-62
2024/03/22 01:39:06;;;;;;;13.90;7.50;;;;;;;10.40;73.44;100637.49;128353;1257;113767;-63
2024/03/22 01:42:11;;;;;;;12.90;8.20;;;;;;;10.38;73.31;100632.36;128511;1278;128715;-62
2024/03/22 01:45:17;;;;;;;11.10;6.40;;;;;;;10.36;73.17;100627.10;128463;1260;114630;-63
2024/03/22 01:48:21;;;;;;;10.00;5.70;;;;;;;10.33;73.28;100621.86;128100;1257;113636;-61
2024/03/22 01:51:33;;;;;;;10.40;6.90;;;;;;;10.31;72.89;100623.73;128301;1257;113622;-61
2024/03/22 01:54:39;;;;;;;10.50;6.70;;;;;;;10.29;72.96;100622.73;128222;1257;113572;-62
2024/03/22 01:57:49;;;;;;;9.40;5.60;;;;;;;10.28;73.00;100623.33;128273;1261;128794;-62
2024/03/22 02:00:56;;;;;;;8.80;5.90;;;;;;;10.25;72.71;100615.21;128364;1263;114672;-62
2024/03/22 02:04:03;;;;;;;10.50;5.70;;;;;;;10.22;72.62;100615.34;128064;1261;113739;-64
2024/03/22 02:07:12;;;;;;;9.70;5.70;;;;;;;10.19;72.78;100618.33;128257;1254;113667;-64
2024/03/22 02:10:18;;;;;;;9.20;6.00;;;;;;;10.17;72.86;100617.70;128564;1262;113609;-62
2024/03/22 02:13:25;;;;;;;10.10;6.10;;;;;;;10.13;72.97;100617.67;128076;1276;128583;-62
2024/03/22 02:16:51;;;;;;;9.60;6.50;;;;;;;10.12;73.07;100618.28;128381;1260;114485;-63
2024/03/22 02:20:08;;;;;;;9.90;5.90;;;;;;;10.08;73.32;100619.91;128262;1254;113416;-62
2024/03/22 02:23:25;;;;;;;;;;;;;;;;;;;;;
2024/03/22 02:26:38;;;;;;;9.20;6.20;;;;;;;10.03;73.30;100616.17;128180;1263;113546;-62
2024/03/22 02:29:46;;;;;;;12.90;6.20;;;;;;;10.01;73.61;100613.89;128533;1257;128246;-63
2024/03/22 02:33:02;;;;;;;7.60;5.50;;;;;;;10.01;73.56;100616.05;128642;1257;113945;-63
2024/03/22 02:36:17;;;;;;;10.00;5.90;;;;;;;10.00;73.68;100614.34;128501;1254;113763;-62
2024/03/22 02:39:28;;;;;;;8.50;5.90;;;;;;;9.98;73.82;100611.04;128622;1257;113536;-63
2024/03/22 02:42:32;;;;;;;8.30;5.90;;;;;;;9.95;73.92;100609.34;128203;1257;113839;-63
2024/03/22 02:45:40;;;;;;;8.20;5.50;;;;;;;9.93;74.06;100609.61;128552;1260;127890;-63
2024/03/22 02:48:50;;;;;;;8.40;5.60;;;;;;;9.90;74.01;100608.50;128327;1254;113796;-61
2024/03/22 02:52:08;;;;;;;9.30;6.20;;;;;;;9.88;74.19;100612.86;128305;1254;114627;-62
2024/03/22 02:55:21;;;;;;;9.00;5.90;;;;;;;9.84;74.31;100613.54;128706;1254;113465;-62
2024/03/22 02:58:28;;;;;;;10.00;6.60;;;;;;;9.83;74.41;100613.08;128522;1257;113479;-60
2024/03/22 03:01:36;;;;;;;9.80;6.80;;;;;;;9.80;74.43;100608.55;128651;1257;128835;-62
2024/03/22 03:04:42;;;;;;;10.10;6.50;;;;;;;9.78;74.68;100607.21;128619;1254;115029;-62
2024/03/22 03:07:51;;;;;;;10.00;6.00;;;;;;;9.75;74.85;100608.40;128744;1254;113533;-63
2024/03/22 03:10:59;;;;;;;9.20;6.00;;;;;;;9.73;74.86;100606.16;128732;1254;113510;-62
2024/03/22 03:14:08;;;;;;;10.40;6.20;;;;;;;9.71;75.09;100606.61;128769;1254;113446;-61
2024/03/22 03:17:15;;;;;;;10.00;7.20;;;;;;;9.69;75.25;100605.95;128660;1254;128856;-63
2024/03/22 03:20:25;;;;;;;8.20;5.90;;;;;;;9.67;75.61;100602.14;128348;1254;114073;-63
2024/03/22 03:23:36;;;;;;;8.90;6.20;;;;;;;9.64;75.69;100597.80;128559;1254;113454;-62
2024/03/22 03:26:45;;;;;;;10.50;6.70;;;;;;;9.61;76.10;100590.26;128705;1254;113529;-64
2024/03/22 03:30:08;;;;;;;11.00;7.80;;;;;;;9.58;76.31;100586.63;128600;1254;113429;-63
2024/03/22 03:33:19;;;;;;;9.00;6.20;;;;;;;9.56;76.38;100588.64;128686;1276;127697;-62
2024/03/22 03:36:25;;;;;;;11.20;8.20;;;;;;;9.56;76.55;100593.13;128735;1256;114742;-62
2024/03/22 03:39:33;;;;;;;9.70;6.70;;;;;;;9.55;76.80;100587.80;128772;1254;113471;-63
2024/03/22 03:42:44;;;;;;;12.90;7.50;;;;;;;9.54;76.99;100587.32;128728;1254;113509;-63
2024/03/22 03:45:54;;;;;;;11.00;8.00;;;;;;;9.52;77.05;100583.84;128750;1276;113447;-63
2024/03/22 03:49:06;;;;;;;12.20;7.90;;;;;;;9.50;77.26;100584.83;128646;1275;128935;-62
2024/03/22 03:52:14;;;;;;;12.90;8.30;;;;;;;9.50;77.55;100590.15;128610;1256;114547;-62
2024/03/22 03:55:18;;;;;;;12.60;7.80;;;;;;;9.50;77.62;100589.78;128736;1254;113504;-62
2024/03/22 03:58:32;;;;;;;11.90;8.70;;;;;;;9.52;77.71;100589.38;128589;1254;113536;-63
2024/03/22 04:01:38;;;;;;;12.00;7.80;;;;;;;9.50;78.03;100587.64;128517;1254;113548;-62
2024/03/22 04:04:51;;;;;;;13.00;8.30;;;;;;;9.50;78.13;100589.08;128778;1257;127861;-62
2024/03/22 04:08:01;;;;;;;13.10;8.30;;;;;;;9.51;78.16;100591.52;128670;1253;113921;-62
2024/03/22 04:11:08;;;;;;;13.80;9.20;;;;;;;9.52;78.33;100589.53;128748;1254;113543;-62
2024/03/22 04:14:12;;;;;;;14.00;9.90;;;;;;;9.53;78.22;100593.96;128863;1254;113474;-63
2024/03/22 04:17:22;;;;;;;12.60;8.30;;;;;;;9.53;78.45;100592.16;128364;1254;113599;-63
2024/03/22 04:20:27;;;;;;;13.80;9.10;;;;;;;9.52;78.50;100589.88;128616;1275;127986;-63
2024/03/22 04:23:33;;;;;;;13.60;9.50;;;;;;;9.51;78.55;100592.43;128631;1256;114813;-63
2024/03/22 04:26:42;;;;;;;13.80;8.40;;;;;;;9.51;78.83;100586.55;128529;1254;114569;-62
2024/03/22 04:29:50;;;;;;;13.90;9.20;;;;;;;9.50;78.63;100582.85;128713;1254;113512;-62
2024/03/22 04:33:02;;;;;;;15.00;9.30;;;;;;;9.50;78.80;100579.82;128374;1254;113633;-62
2024/03/22 04:36:11;;;;;;;13.00;8.60;;;;;;;9.50;78.97;100576.08;128709;1275;127707;-63
2024/03/22 04:39:24;;;;;;;13.10;8.90;;;;;;;9.50;78.85;100583.95;128695;1252;113756;-63
2024/03/22 04:42:33;;;;;;;12.10;8.10;;;;;;;9.51;78.88;100585.85;128706;1254;113507;-62
2024/03/22 04:45:41;;;;;;;13.50;8.90;;;;;;;9.52;79.09;100584.73;128618;1252;113554;-63
2024/03/22 04:48:52;;;;;;;15.10;9.50;;;;;;;9.49;79.16;100593.58;128635;1253;113455;-61
2024/03/22 04:51:59;;;;;;;14.10;8.00;;;;;;;9.48;79.14;100597.90;128716;1276;128575;-62
2024/03/22 04:55:05;;;;;;;11.20;7.60;;;;;;;9.49;79.25;100597.50;128657;1254;114370;-62
2024/03/22 04:58:23;;;;;;;11.40;7.50;;;;;;;9.49;79.08;100593.77;128647;1254;113558;-62
2024/03/22 05:01:33;;;;;;;12.70;7.80;;;;;;;9.49;79.32;100591.80;128479;1253;113536;-61
2024/03/22 05:04:39;;;;;;;11.10;6.80;;;;;;;9.49;79.18;100584.85;128558;1257;113554;-62
2024/03/22 05:07:45;;;;;;;10.10;6.70;;;;;;;9.49;79.27;100590.55;128914;1276;128871;-61
2024/03/22 05:10:51;;;;;;;10.50;6.60;;;;;;;9.48;79.34;100592.56;129292;1254;113880;-62
2024/03/22 05:13:56;;;;;;;10.10;6.30;;;;;;;9.47;79.35;100595.27;128691;1254;113586;-60
2024/03/22 05:17:06;;;;;;;9.70;7.00;;;;;;;9.48;79.35;100593.63;128888;1254;113562;-62
2024/03/22 05:20:16;;;;;;;9.70;6.90;;;;;;;9.49;79.47;100591.98;128755;1253;113616;-62
2024/03/22 05:23:24;;;;;;;11.10;6.50;;;;;;;9.49;79.43;100583.44;128776;1254;128851;-63
2024/03/22 05:26:36;;;;;;;10.60;6.40;;;;;;;9.49;79.49;100582.52;128752;1253;114469;-63
2024/03/22 05:29:46;;;;;;;10.70;6.50;;;;;;;9.51;79.35;100583.34;129433;1253;113489;-62
2024/03/22 05:32:52;;;;;;;11.00;7.00;;;;;;;9.54;79.52;100585.16;128864;1254;113458;-62
2024/03/22 05:36:04;;;;;;;10.50;6.10;;;;;;;9.55;79.31;100587.26;128868;1254;113500;-63
2024/03/22 05:39:18;;;;;;;10.20;6.20;;;;;;;9.57;79.25;100596.84;128682;1253;128808;-63
2024/03/22 05:42:23;;;;;;;11.10;6.30;;;;;;;9.56;79.14;100599.52;128734;1262;114704;-63
2024/03/22 05:45:33;;;;;;;10.40;5.60;;;;;;;9.56;79.16;100599.19;129068;1254;115471;-62
2024/03/22 05:48:50;;;;;;;;;;;;;;;;;;;;;
2024/03/22 05:52:04;;;;;;;9.80;6.20;;;;;;;9.58;78.87;100603.02;128502;1264;113434;-62
2024/03/22 05:55:21;;;;;;;9.50;6.50;;;;;;;9.58;78.80;100601.23;129023;1276;127708;-63
2024/03/22 05:58:31;;;;;;;9.80;6.20;;;;;;;9.60;78.69;100598.15;128783;1254;114065;-63
2024/03/22 06:01:42;;;;;;;9.20;6.40;;;;;;;9.64;78.69;100595.48;128851;1253;113537;-62
2024/03/22 06:04:49;;;;;;;9.80;6.00;;;;;;;9.70;78.74;100595.92;128771;1254;113710;-62
2024/03/22 06:07:56;;;;;;;9.00;6.30;;;;;;;9.76;78.42;100596.97;128650;1253;113487;-63
2024/03/22 06:15:44;;;;;;;10.70;6.70;;;;;;;9.83;78.19;100589.35;128619;1276;113609;-62
2024/03/22 06:18:51;;;;;;;9.70;6.70;;;;;;;9.92;78.10;100592.91;128692;1254;113524;-61
2024/03/22 06:22:01;;;;;;;11.30;7.40;;;;;;;9.96;78.05;100593.43;128704;1257;113549;-62
2024/03/22 06:29:46;;;;;;;10.30;6.70;;;;;;;10.11;77.86;100587.60;128746;1254;128319;-62
2024/03/22 06:32:50;;;;;;;12.30;8.20;;;;;;;10.24;77.67;100583.33;128639;1257;114720;-61
2024/03/22 06:35:55;;;;;;;12.20;8.10;;;;;;;10.33;77.39;100581.13;128759;1253;113570;-62
2024/03/22 06:43:42;;;;;;;11.40;7.90;;;;;;;10.60;76.88;100584.65;128921;1254;115509;-62
2024/03/22 06:47:01;;;;;;;11.50;8.00;;;;;;;10.78;76.74;100577.39;128588;1257;128603;-62
2024/03/22 06:50:11;;;;;;;12.10;8.30;;;;;;;10.92;75.78;100577.63;129723;1254;114407;-61
2024/03/22 06:53:32;;;;;;;14.40;9.50;;;;;;;11.05;75.50;100574.88;129747;1254;113429;-62
2024/03/22 06:56:52;;;;;;;13.00;8.30;;;;;;;11.22;75.66;100574.10;128769;1254;113480;-62
2024/03/22 07:00:15;;;;;;;13.50;9.10;;;;;;;11.41;75.20;100567.29;128806;1257;113545;-62
2024/03/22 07:04:37;;;;;;;14.30;8.50;;;;;;;11.59;74.78;100556.58;128624;1256;128209;-62
2024/03/22 07:07:50;;;;;;;15.80;9.10;;;;;;;11.81;74.57;100554.36;128846;1253;115045;-62
2024/03/22 07:11:02;;;;;;;15.30;9.80;;;;;;;12.00;74.00;100553.98;128673;1254;115827;-62
2024/03/22 07:14:25;;;;;;;;;;;;;;;;;;;;;
2024/03/22 07:17:32;;;;;;;13.30;8.80;;;;;;;12.40;72.83;100548.71;128458;1253;113713;-62
2024/03/22 07:25:22;;;;;;;15.30;9.80;;;;;;;12.65;71.94;100557.05;127935;1261;113754;-62
2024/03/22 07:28:40;;;;;;;14.60;10.20;;;;;;;12.70;71.41;100560.02;127763;1260;115428;-62
2024/03/22 07:36:17;;;;;;;13.20;9.50;;;;;;;12.89;70.61;100559.70;127912;1260;113670;-62
2024/03/22 07:39:31;;;;;;;14.00;9.10;;;;;;;13.03;70.31;100564.52;128060;1262;128739;-61
2024/03/22 07:42:53;;;;;;;14.60;9.50;;;;;;;13.11;70.03;100559.54;127969;1264;114160;-62
2024/03/22 07:46:06;;;;;;;14.40;9.30;;;;;;;13.15;69.45;100556.27;127984;1260;113652;-62
2024/03/22 07:53:55;;;;;;;13.80;9.00;;;;;;;13.11;68.72;100548.05;128178;1261;113666;-62
2024/03/22 07:57:04;;;;;;;14.80;10.10;;;;;;;13.14;68.73;100543.45;128697;1259;128667;-62
2024/03/22 08:00:08;;;;;;;20.70;10.10;;;;;;;13.20;68.77;100540.77;128852;1254;114703;-61
2024/03/22 08:03:17;;;;;;;12.20;8.60;;;;;;;13.26;68.37;100534.66;128819;1254;113533;-63
2024/03/22 08:06:25;;;;;;;14.80;9.80;;;;;;;13.31;68.15;100531.14;128707;1253;113521;-62
2024/03/22 08:14:19;;;;;;;;;;;;;;;;;;;;;
2024/03/22 08:31:13;;;;;;;12.80;9.40;;;;;;;14.78;65.71;100491.53;126856;1274;114751;-62
2024/03/22 08:34:22;;;;;;;11.60;7.90;;;;;;;15.07;65.22;100489.23;127000;1274;128705;-62
2024/03/22 08:37:26;;;;;;;12.70;8.00;;;;;;;15.21;65.04;100485.84;127014;1270;114074;-62
2024/03/22 08:40:35;;;;;;;11.00;8.50;;;;;;;15.35;64.31;100477.52;126927;1270;114897;-63
2024/03/22 08:43:44;;;;;;;10.50;7.70;;;;;;;15.47;64.26;100474.08;126973;1270;113722;-61
2024/03/22 08:46:53;;;;;;;12.00;8.50;;;;;;;15.64;64.06;100466.23;126995;1271;113710;-62
2024/03/22 08:50:03;;;;;;;12.30;8.80;;;;;;;15.84;63.46;100461.86;126988;1270;127807;-61
2024/03/22 08:53:12;;;;;;;12.20;8.40;;;;;;;15.95;63.21;100459.08;127025;1271;114662;-62
2024/03/22 08:56:23;;;;;;;13.00;9.70;;;;;;;15.98;62.64;100453.33;127100;1270;113614;-63
2024/03/22 08:59:37;;;;;;;12.20;8.90;;;;;;;15.97;62.44;100448.35;127066;1276;113561;-62
2024/03/22 09:02:50;;;;;;;11.50;8.60;;;;;;;16.02;62.29;100444.75;127121;1276;113682;-63
2024/03/22 09:11:06;;;;;;;;;;;;;;;;;;;;;
2024/03/22 09:14:43;;;;;;;12.40;9.40;;;;;;;17.26;60.37;100430.04;127758;1267;114027;-62
2024/03/22 09:18:18;;;;;;;12.40;8.30;;;;;;;17.28;60.01;100435.11;128134;1259;113732;-62
2024/03/22 09:21:24;;;;;;;13.00;9.30;;;;;;;17.27;59.47;100431.80;128190;1265;113712;-62
2024/03/22 09:24:35;;;;;;;10.50;8.40;;;;;;;17.23;58.88;100432.27;128330;1260;129078;-63
2024/03/22 09:27:41;;;;;;;11.90;8.90;;;;;;;17.18;58.66;100436.11;127979;1266;116016;-63
2024/03/22 09:30:51;;;;;;;12.90;8.70;;;;;;;17.19;58.73;100436.75;127920;1259;113713;-63
2024/03/22 09:34:01;;;;;;;12.80;9.40;;;;;;;17.25;58.33;100433.03;128298;1264;113597;-62
2024/03/22 09:37:05;;;;;;;12.10;8.70;;;;;;;17.27;57.95;100435.90;128105;1259;113621;-62
2024/03/22 09:40:14;;;;;;;11.30;8.80;;;;;;;17.25;57.46;100429.02;128015;1259;127935;-62
2024/03/22 09:43:20;;;;;;;11.00;8.40;;;;;;;17.25;57.22;100434.81;128012;1259;114744;-62
2024/03/22 09:46:29;;;;;;;10.90;7.90;;;;;;;17.26;56.93;100423.41;127965;1266;113617;-62
2024/03/22 09:49:35;;;;;;;14.10;8.90;;;;;;;17.24;56.76;100422.61;128041;1264;113607;-62
2024/03/22 09:52:43;;;;;;;10.80;8.20;;;;;;;17.23;56.64;100418.52;127739;1259;113358;-61
2024/03/22 09:55:51;;;;;;;14.20;9.10;;;;;;;17.24;56.59;100417.41;128030;1259;128120;-62
2024/03/22 09:58:56;;;;;;;10.60;8.60;;;;;;;17.25;56.59;100414.58;128166;1260;115437;-63
2024/03/22 10:02:06;;;;;;;12.20;8.30;;;;;;;17.26;56.22;100411.77;128046;1264;115601;-62
2024/03/22 10:05:15;;;;;;;11.90;7.70;;;;;;;17.24;55.90;100412.67;128132;1254;113644;-63
2024/03/22 10:08:19;;;;;;;10.90;8.00;;;;;;;17.22;55.70;100409.76;128781;1254;113473;-62
2024/03/22 10:11:29;;;;;;;11.20;8.30;;;;;;;17.24;55.49;100403.88;128729;1259;127711;-62
2024/03/22 10:14:36;;;;;;;9.70;8.00;;;;;;;17.25;55.50;100400.00;128666;1254;114755;-63
2024/03/22 10:17:42;;;;;;;13.20;7.60;;;;;;;17.29;55.56;100397.36;128588;1259;113687;-64
2024/03/22 10:21:01;;;;;;;12.10;7.80;;;;;;;17.38;55.63;100397.88;128681;1254;113609;-61
2024/03/22 10:24:11;;;;;;;13.00;8.90;;;;;;;17.48;55.62;100391.34;128720;1254;113553;-61
2024/03/22 10:27:19;;;;;;;12.10;7.50;;;;;;;17.60;55.44;100385.16;128764;1254;128717;-61
2024/03/22 10:30:26;;;;;;;11.70;7.70;;;;;;;17.67;55.31;100382.69;128825;1254;115323;-62
2024/03/22 10:33:34;;;;;;;12.20;8.60;;;;;;;17.74;55.00;100381.02;128595;1259;113534;-61
2024/03/22 10:36:48;;;;;;;10.50;7.50;;;;;;;17.88;55.28;100381.25;128558;1254;113530;-62
2024/03/22 10:39:56;;;;;;;11.70;8.50;;;;;;;18.02;54.82;100374.14;128318;1254;113669;-61
2024/03/22 10:43:07;;;;;;;13.10;8.20;;;;;;;18.13;54.57;100365.58;128754;1254;127716;-61
2024/03/22 10:46:13;;;;;;;12.40;8.30;;;;;;;18.22;54.29;100363.90;128664;1259;114829;-62
2024/03/22 10:49:21;;;;;;;10.00;7.60;;;;;;;18.31;54.25;100360.69;128777;1257;113496;-62
2024/03/22 10:52:26;;;;;;;9.40;7.10;;;;;;;18.43;53.83;100362.60;128349;1254;113529;-62
2024/03/22 10:55:34;;;;;;;10.70;7.20;;;;;;;18.44;52.77;100359.25;128620;1254;113629;-60
2024/03/22 10:58:43;;;;;;;11.00;7.20;;;;;;;18.36;52.48;100355.02;128805;1257;127817;-62
2024/03/22 11:01:53;;;;;;;9.50;6.60;;;;;;;18.37;52.37;100352.73;128664;1259;114936;-61
2024/03/22 11:05:02;;;;;;;10.70;6.90;;;;;;;18.44;51.74;100349.50;128774;1258;113446;-61
2024/03/22 11:08:07;;;;;;;10.50;7.40;;;;;;;18.45;51.57;100340.40;128798;1254;113555;-61
2024/03/22 11:11:13;;;;;;;8.80;7.00;;;;;;;18.53;51.18;100336.13;128726;1258;114718;-61
2024/03/22 11:14:17;;;;;;;9.50;7.30;;;;;;;18.61;51.13;100330.52;128737;1254;126789;-61
2024/03/22 11:17:24;;;;;;;10.10;6.80;;;;;;;18.65;50.66;100318.81;128785;1254;115500;-62
2024/03/22 11:20:40;;;;;;;11.50;6.70;;;;;;;18.78;50.93;100313.79;128814;1256;114834;-62
2024/03/22 11:23:53;;;;;;;11.80;7.60;;;;;;;18.93;50.77;100307.64;128802;1256;114701;-60
2024/03/22 11:27:02;;;;;;;9.40;6.80;;;;;;;19.06;50.35;100300.39;128431;1254;113874;-61
2024/03/22 11:30:11;;;;;;;9.60;6.70;;;;;;;19.18;50.20;100292.39;128404;1253;128128;-61
2024/03/22 11:33:19;;;;;;;10.40;7.50;;;;;;;19.30;49.99;100286.41;128706;1259;116410;-61
2024/03/22 11:36:27;;;;;;;9.60;7.20;;;;;;;19.38;49.68;100281.23;128968;1253;113484;-61
2024/03/22 11:39:34;;;;;;;10.70;6.90;;;;;;;19.40;49.27;100274.51;128703;1256;113792;-61
2024/03/22 11:42:47;;;;;;;9.90;6.10;;;;;;;19.39;49.08;100268.45;128767;1260;113509;-61
2024/03/22 11:45:58;;;;;;;10.80;7.80;;;;;;;19.35;48.86;100265.13;128700;1256;128406;-61
2024/03/22 11:49:02;;;;;;;9.90;7.10;;;;;;;19.34;48.87;100259.13;128842;1252;114864;-62
2024/03/22 11:52:12;;;;;;;9.00;6.40;;;;;;;19.37;48.90;100258.30;128782;1252;113508;-62
2024/03/22 11:55:18;;;;;;;13.70;9.80;;;;;;;19.37;48.56;100248.35;128787;1254;113575;-61
2024/03/22 11:58:22;;;;;;;11.10;7.20;;;;;;;19.36;48.34;100242.77;128467;1254;113767;-61
2024/03/22 12:01:30;;;;;;;10.00;6.50;;;;;;;19.33;48.29;100237.66;128451;1254;127763;-62
2024/03/22 12:04:42;;;;;;;10.10;7.40;;;;;;;19.28;48.11;100232.44;128774;1256;115573;-60
2024/03/22 12:07:50;;;;;;;12.60;6.10;;;;;;;19.22;47.86;100229.00;128849;1257;113454;-60
2024/03/22 12:11:07;;;;;;;10.10;6.10;;;;;;;19.14;47.46;100229.33;128897;1254;113920;-61
2024/03/22 12:14:18;;;;;;;10.70;6.40;;;;;;;19.06;47.44;100222.77;128722;1254;113540;-61
2024/03/22 12:17:23;;;;;;;10.40;5.40;;;;;;;19.06;47.60;100216.62;128399;1254;127939;-61
2024/03/22 12:20:32;;;;;;;8.50;5.50;;;;;;;18.98;46.99;100212.55;128802;1254;115580;-61
2024/03/22 12:23:36;;;;;;;10.20;5.80;;;;;;;18.92;47.03;100209.64;128687;1259;113474;-61
2024/03/22 12:26:40;;;;;;;9.90;5.80;;;;;;;18.86;46.80;100207.61;128716;1257;113470;-60
2024/03/22 12:29:46;;;;;;;9.10;5.70;;;;;;;18.76;46.27;100199.58;128761;1254;113590;-60
2024/03/22 12:32:55;;;;;;;8.30;5.70;;;;;;;18.65;46.47;100197.97;128570;1257;129595;-62
2024/03/22 12:36:02;;;;;;;8.50;5.00;;;;;;;18.62;46.59;100186.80;128582;1259;114758;-63
2024/03/22 12:39:07;;;;;;;7.60;4.90;;;;;;;18.59;46.32;100181.87;128311;1254;113583;-63
2024/03/22 12:42:15;;;;;;;8.60;6.00;;;;;;;18.51;46.48;100180.38;128672;1254;113532;-62
2024/03/22 12:45:21;;;;;;;7.80;5.40;;;;;;;18.40;46.35;100175.30;128622;1254;113396;-62
2024/03/22 12:48:25;;;;;;;10.00;5.50;;;;;;;18.32;46.54;100172.89;128482;1253;126838;-61
2024/03/22 12:51:35;;;;;;;8.50;6.40;;;;;;;18.26;46.49;100172.70;128750;1259;114736;-63
2024/03/22 12:54:40;;;;;;;11.20;7.10;;;;;;;18.13;46.47;100168.34;128824;1253;113496;-63
2024/03/22 12:57:44;;;;;;;;;;;;;;;17.92;46.53;100163.77;128555;1262;114567;-63
2024/03/22 13:00:51;;;;;;;8.50;6.10;;;;;;;17.75;46.87;100160.81;128557;1263;113704;-63
2024/03/22 13:04:01;;;;;;;12.50;6.70;;;;;;;17.64;47.28;100157.13;128747;1254;128644;-62
2024/03/22 13:07:06;;;;;;;13.50;6.10;;;;;;;17.63;47.62;100152.01;128885;1259;114761;-62
2024/03/22 13:10:19;;;;;;;9.20;6.30;;;;;;;17.60;47.50;100148.05;128642;1259;113550;-62
2024/03/22 13:13:25;;;;;;;8.90;5.50;;;;;;;17.52;47.57;100146.73;128875;1259;114358;-63
2024/03/22 13:16:33;;;;;;;8.20;5.20;;;;;;;17.44;47.47;100141.23;128762;1254;113458;-62
2024/03/22 13:19:38;;;;;;;7.80;6.00;;;;;;;17.41;47.54;100133.86;128742;1259;128772;-63
2024/03/22 13:22:43;;;;;;;8.50;5.60;;;;;;;17.38;47.45;100131.61;128752;1254;114732;-62
2024/03/22 13:25:48;;;;;;;;;;;;;;;17.36;47.25;100123.46;128858;1254;113619;-62
2024/03/22 13:28:54;;;;;;;7.40;4.60;;;;;;;17.38;47.58;100119.52;128691;1259;113444;-62
2024/03/22 13:32:09;;;;;;;7.80;5.70;;;;;;;17.46;47.63;100116.86;128673;1254;113502;-62
2024/03/22 13:35:23;;;;;;;9.30;5.50;;;;;;;17.57;47.71;100109.36;128635;1254;128809;-62
2024/03/22 13:38:32;;;;;;;7.00;4.90;;;;;;;17.67;47.78;100102.35;128593;1254;114727;-62
2024/03/22 13:41:43;;;;;;;8.20;5.00;;;;;;;17.82;47.78;100098.64;128713;1254;113465;-62
2024/03/22 13:49:38;;;;;;;6.10;4.40;;;;;;;18.03;47.44;100086.36;128654;1259;113557;-63
2024/03/22 13:52:44;;;;;;;5.90;4.10;;;;;;;18.15;47.33;100084.34;128618;1254;128824;-64
2024/03/22 13:55:53;;;;;;;8.60;4.50;;;;;;;18.20;47.14;100079.32;128692;1257;114734;-64
2024/03/22 13:59:02;;;;;;;7.90;5.20;;;;;;;18.26;47.11;100076.15;128743;1259;113553;-64
2024/03/22 14:02:11;;;;;;;6.40;4.50;;;;;;;18.24;46.93;100074.31;128548;1254;113550;-62
2024/03/22 14:05:24;;;;;;;7.40;3.90;;;;;;;18.23;46.97;100071.34;128830;1254;113465;-63
2024/03/22 14:08:31;;;;;;;6.90;4.50;;;;;;;18.25;46.85;100067.59;128501;1254;128727;-62
2024/03/22 14:11:37;;;;;;;5.80;4.60;;;;;;;18.25;46.92;100060.89;128655;1257;114719;-63
2024/03/22 14:14:43;;;;;;;6.00;4.10;;;;;;;18.24;46.77;100053.60;128812;1256;113494;-62
2024/03/22 14:17:48;;;;;;;8.10;4.30;;;;;;;18.19;46.43;100049.42;128811;1252;113543;-62
2024/03/22 14:20:56;;;;;;;6.40;3.90;;;;;;;18.18;46.57;100048.99;128751;1254;113542;-62
2024/03/22 14:24:03;;;;;;;5.60;4.20;;;;;;;18.14;46.35;100043.19;128819;1257;127824;-62
2024/03/22 14:27:09;;;;;;;6.30;4.80;;;;;;;18.13;46.46;100039.66;128597;1259;115507;-62
2024/03/22 14:30:19;;;;;;;6.10;4.70;;;;;;;17.96;45.91;100036.02;128725;1259;113502;-63
2024/03/22 14:33:24;;;;;;;14.20;7.40;;;;;;;17.79;46.04;100031.96;128740;1256;113446;-62
2024/03/22 14:36:32;;;;;;;8.10;5.90;;;;;;;17.68;46.10;100029.30;128787;1256;113481;-62
2024/03/22 14:39:48;;;;;;;10.60;4.50;;;;;;;17.60;46.19;100021.17;128422;1262;128727;-62
2024/03/22 14:42:54;;;;;;;9.40;5.90;;;;;;;17.54;46.47;100015.84;128663;1257;115384;-62
2024/03/22 14:46:04;;;;;;;13.60;7.70;;;;;;;17.54;46.09;100011.13;128462;1254;113650;-62
2024/03/22 14:49:13;;;;;;;9.40;5.20;;;;;;;17.49;45.92;100008.29;128801;1254;113486;-63
2024/03/22 14:52:21;;;;;;;8.00;4.70;;;;;;;17.50;45.95;100004.48;128729;1257;113523;-62
2024/03/22 14:55:29;;;;;;;7.20;4.50;;;;;;;17.53;45.90;99998.75;128502;1257;128346;-62
2024/03/22 14:58:39;;;;;;;7.00;3.40;;;;;;;17.57;45.77;99996.95;128235;1259;114905;-62
2024/03/22 15:01:45;;;;;;;6.40;4.00;;;;;;;17.55;45.61;99994.27;128378;1262;113482;-62
2024/03/22 15:04:54;;;;;;;8.70;4.10;;;;;;;17.47;45.45;99984.81;128665;1259;113541;-62
2024/03/22 15:07:59;;;;;;;7.30;4.80;;;;;;;17.40;45.70;99981.58;128685;1256;113530;-62
2024/03/22 15:11:12;;;;;;;8.00;5.50;;;;;;;17.35;45.86;99979.52;128597;1257;128671;-62
2024/03/22 15:14:17;;;;;;;7.60;5.50;;;;;;;17.30;46.10;99976.66;128617;1256;115373;-62
2024/03/22 15:17:33;;;;;;;8.00;6.20;;;;;;;17.25;46.30;99968.80;128716;1256;113545;-62
2024/03/22 15:20:42;;;;;;;10.70;7.20;;;;;;;17.17;46.61;99960.77;128723;1256;113554;-62
2024/03/22 15:23:48;;;;;;;15.90;10.60;;;;;;;17.09;47.15;99958.73;128525;1254;113628;-62
2024/03/22 15:26:57;;;;;;;11.60;9.40;;;;;;;16.97;47.33;99951.76;128672;1254;128771;-63
2024/03/22 15:30:06;;;;;;;13.20;8.60;;;;;;;16.85;47.57;99949.23;128576;1260;114722;-63
2024/03/22 15:33:14;;;;;;;11.90;8.60;;;;;;;16.78;47.57;99944.42;128642;1260;113558;-62